Time;durP1;ratioP1;P1;durP2;ratioP2;P2;SDS_P1;SDS_P2;PMS_P1;PMS_P2;Temp;Humidity;BMP_temperature;BMP_pressure;BME280_temperature;BME280_humidity;BME280_pressure;Samples;Min_cycle;Max_cycle;Signal;HPM_P1;HPM_P2
2023/07/31 00:01:50;;;;;;;2.83;1.60;;;16.30;99.90;;;;;;4660423;30;20095;-96
2023/07/31 00:04:54;;;;;;;3.40;1.98;;;16.10;99.90;;;;;;4630519;31;20114;-96
2023/07/31 00:08:17;;;;;;;;;;;;;;;;;;;;;
2023/07/31 00:11:44;;;;;;;1.98;1.60;;;16.00;99.90;;;;;;4604609;31;20056;-96
2023/07/31 00:17:56;;;;;;;2.50;2.00;;;16.30;99.90;;;;;;4620599;30;20063;-96
2023/07/31 00:20:38;;;;;;;3.35;1.92;;;16.10;99.90;;;;;;4642146;30;20115;-96
2023/07/31 00:23:07;;;;;;;3.40;2.10;;;16.30;99.90;;;;;;4659785;30;20116;-96
2023/07/31 00:25:39;;;;;;;2.78;2.15;;;16.30;99.90;;;;;;4644937;30;20046;-96
2023/07/31 00:28:05;;;;;;;3.65;1.73;;;16.30;99.90;;;;;;4640734;30;20059;-95
2023/07/31 00:30:45;;;;;;;4.25;1.88;;;16.00;99.90;;;;;;4702980;30;20052;-95
2023/07/31 00:33:11;;;;;;;2.30;1.60;;;16.30;99.90;;;;;;4716210;30;20059;-96
2023/07/31 00:35:40;;;;;;;3.15;1.55;;;16.30;99.90;;;;;;4719111;30;20048;-96
2023/07/31 00:38:06;;;;;;;2.90;1.40;;;15.70;99.90;;;;;;4744540;29;20096;-96
2023/07/31 00:40:39;;;;;;;3.80;1.63;;;16.20;99.90;;;;;;4761120;29;20051;-96
2023/07/31 00:43:07;;;;;;;2.60;1.60;;;16.20;99.90;;;;;;4764651;29;20643;-95
2023/07/31 00:45:33;;;;;;;3.63;1.75;;;16.20;99.90;;;;;;4763106;29;20051;-95
2023/07/31 00:48:06;;;;;;;2.47;1.55;;;15.70;99.90;;;;;;4751149;29;20043;-96
2023/07/31 00:50:38;;;;;;;2.60;1.52;;;16.50;99.90;;;;;;4779177;29;20055;-96
2023/07/31 00:53:28;;;;;;;4.18;1.70;;;15.90;99.90;;;;;;4784214;29;20062;-96
2023/07/31 00:56:04;;;;;;;2.53;1.60;;;16.00;99.90;;;;;;4780705;29;20140;-96
2023/07/31 00:58:36;;;;;;;3.03;1.55;;;16.00;99.90;;;;;;4771503;29;20057;-96
2023/07/31 01:01:28;;;;;;;2.85;1.60;;;15.90;99.90;;;;;;4762787;29;20491;-96
2023/07/31 01:04:27;;;;;;;2.53;1.90;;;15.80;99.90;;;;;;4752901;29;20105;-96
2023/07/31 01:07:19;;;;;;;2.63;1.52;;;16.00;99.90;;;;;;4773562;29;20051;-96
2023/07/31 01:10:21;;;;;;;2.17;1.52;;;16.00;99.90;;;;;;4781065;29;20066;-96
2023/07/31 01:13:08;;;;;;;1.67;1.20;;;16.00;99.90;;;;;;4694490;30;20049;-96
2023/07/31 01:15:33;;;;;;;1.63;1.30;;;15.90;99.90;;;;;;4771614;29;20114;-96
2023/07/31 01:18:15;;;;;;;2.15;1.30;;;15.90;99.90;;;;;;4784746;29;20078;-96
2023/07/31 01:20:57;;;;;;;1.88;1.00;;;15.60;99.90;;;;;;4776561;29;20089;-96
2023/07/31 01:23:54;;;;;;;1.75;1.27;;;16.00;99.90;;;;;;4784216;29;20054;-96
2023/07/31 01:26:28;;;;;;;2.70;1.23;;;15.70;99.90;;;;;;4791152;30;20073;-96
2023/07/31 01:29:09;;;;;;;1.63;1.05;;;15.90;99.90;;;;;;4781135;29;20040;-96
2023/07/31 01:31:37;;;;;;;1.92;0.95;;;15.60;99.90;;;;;;4772593;29;20068;-95
2023/07/31 01:34:48;;;;;;;1.80;0.90;;;15.90;99.90;;;;;;4786731;29;20038;-96
2023/07/31 01:37:41;;;;;;;1.58;1.00;;;15.90;99.90;;;;;;4784537;29;20387;-96
2023/07/31 01:40:07;;;;;;;1.83;0.90;;;15.90;99.90;;;;;;4778681;30;20043;-96
2023/07/31 01:42:56;;;;;;;1.42;0.88;;;16.00;99.90;;;;;;4786371;29;20052;-96
2023/07/31 01:45:37;;;;;;;1.17;0.93;;;15.80;99.90;;;;;;4771482;29;20381;-96
2023/07/31 01:48:24;;;;;;;1.48;0.90;;;15.80;99.90;;;;;;4797256;29;20061;-96
2023/07/31 01:50:53;;;;;;;2.05;0.90;;;15.90;99.90;;;;;;4784700;29;20119;-96
2023/07/31 01:53:37;;;;;;;3.92;0.90;;;15.90;99.90;;;;;;4781677;29;20055;-96
2023/07/31 01:56:47;;;;;;;2.17;1.23;;;16.00;99.90;;;;;;4782193;29;20102;-96
2023/07/31 02:02:11;;;;;;;0.90;0.80;;;15.90;99.90;;;;;;4783020;29;20063;-95
2023/07/31 02:04:44;;;;;;;1.33;0.90;;;15.90;99.90;;;;;;4766806;29;20047;-96
2023/07/31 02:07:41;;;;;;;2.03;0.90;;;15.90;99.90;;;;;;4758863;29;20061;-96
2023/07/31 02:10:08;;;;;;;1.55;0.88;;;15.60;99.90;;;;;;4781744;29;20416;-96
2023/07/31 02:12:40;;;;;;;1.23;0.70;;;15.90;99.90;;;;;;4787062;29;20070;-95
2023/07/31 02:15:55;;;;;;;3.20;0.90;;;16.00;99.90;;;;;;4802302;29;20440;-96
2023/07/31 02:18:24;;;;;;;1.98;0.60;;;15.60;99.90;;;;;;4780331;29;20058;-96
2023/07/31 02:21:15;;;;;;;1.40;0.70;;;15.80;99.90;;;;;;4796355;29;20134;-95
2023/07/31 02:24:27;;;;;;;1.70;0.85;;;15.90;99.90;;;;;;4778616;30;20665;-96
2023/07/31 02:27:35;;;;;;;1.02;0.70;;;15.90;99.90;;;;;;4729208;30;20045;-96
2023/07/31 02:30:16;;;;;;;1.73;0.52;;;15.80;99.90;;;;;;4714006;30;20143;-96
2023/07/31 02:33:22;;;;;;;1.15;0.55;;;15.90;99.90;;;;;;4718291;30;20049;-96
2023/07/31 02:36:14;;;;;;;1.90;0.50;;;15.60;99.90;;;;;;4721172;30;20031;-96
2023/07/31 02:39:13;;;;;;;0.70;0.70;;;15.80;99.90;;;;;;4799420;29;20295;-96
2023/07/31 02:41:39;;;;;;;0.43;0.40;;;15.40;99.90;;;;;;4801163;29;20066;-96
2023/07/31 02:44:13;;;;;;;0.30;0.30;;;15.90;99.90;;;;;;4784327;29;20111;-96
2023/07/31 02:47:20;;;;;;;1.40;0.43;;;15.40;99.90;;;;;;4815414;29;20195;-96
2023/07/31 02:50:40;;;;;;;1.38;0.50;;;15.90;99.90;;;;;;4790209;29;20026;-96
2023/07/31 02:53:13;;;;;;;3.47;0.70;;;15.50;99.90;;;;;;4783567;30;20039;-96
2023/07/31 05:14:09;;;;;;;1.35;0.40;;;15.90;99.90;;;;;;4994347;24;20055;-96
2023/07/31 05:16:35;;;;;;;0.90;0.30;;;15.70;99.90;;;;;;4766811;29;20130;-96
2023/07/31 05:19:13;;;;;;;0.80;0.43;;;15.70;99.90;;;;;;4780730;29;20086;-96
2023/07/31 05:21:41;;;;;;;0.68;0.22;;;15.90;99.90;;;;;;4778631;29;20747;-95
2023/07/31 05:24:09;;;;;;;1.15;0.50;;;15.70;99.90;;;;;;4778545;29;20043;-96
2023/07/31 05:26:35;;;;;;;1.48;0.55;;;15.80;99.90;;;;;;4778315;30;20043;-96
2023/07/31 05:29:01;;;;;;;1.42;0.50;;;15.70;99.90;;;;;;4770832;30;20059;-96
2023/07/31 05:31:41;;;;;;;1.23;0.43;;;15.70;99.90;;;;;;4761175;29;20570;-96
2023/07/31 05:34:29;;;;;;;1.10;0.40;;;16.20;99.90;;;;;;4784737;29;20069;-96
2023/07/31 05:36:58;;;;;;;2.45;0.20;;;15.90;99.90;;;;;;4751741;30;20047;-96
2023/07/31 05:39:29;;;;;;;1.55;0.30;;;15.90;99.90;;;;;;4779901;29;20043;-96
2023/07/31 05:42:01;;;;;;;0.95;0.30;;;15.90;99.90;;;;;;4787572;29;20055;-96
2023/07/31 05:44:39;;;;;;;1.15;0.40;;;15.90;99.90;;;;;;4801677;29;20061;-96
2023/07/31 05:47:17;;;;;;;1.25;0.30;;;16.10;99.90;;;;;;4766711;29;20055;-96
2023/07/31 05:50:05;;;;;;;3.42;0.35;;;15.90;99.90;;;;;;4779109;29;20031;-96
2023/07/31 05:52:45;;;;;;;0.75;0.20;;;16.10;99.90;;;;;;4788137;29;20074;-95
2023/07/31 07:23:10;;;;;;;7.68;3.22;;;17.30;99.90;;;;;;5788156;23;20376;31
2023/07/31 08:05:12;;;;;;;3.15;1.65;;;17.20;99.90;;;;;;1561884;24;21553;-96
2023/07/31 09:14:53;;;;;;;0.63;0.40;;;17.90;99.90;;;;;;5856126;23;21395;31
2023/07/31 09:35:48;;;;;;;0.63;0.30;;;18.20;99.90;;;;;;4814915;23;20039;-96
2023/07/31 09:38:56;;;;;;;0.70;0.30;;;18.20;99.90;;;;;;4801034;29;20050;-96
2023/07/31 11:24:03;;;;;;;0.40;0.20;;;18.90;99.90;;;;;;4823177;29;20039;-96
2023/07/31 11:26:48;;;;;;;0.77;0.30;;;19.00;99.90;;;;;;4790635;29;20051;-96
2023/07/31 11:29:15;;;;;;;1.08;0.30;;;19.00;99.90;;;;;;5204859;24;20062;-96
2023/07/31 11:31:56;;;;;;;0.70;0.30;;;19.20;99.90;;;;;;4781365;29;20074;-96
2023/07/31 11:39:51;;;;;;;0.55;0.28;;;18.90;99.90;;;;;;4769199;24;20405;-95
2023/07/31 12:54:57;;;;;;;1.73;0.52;;;19.60;99.90;;;;;;1757695;24;20327;-96
2023/07/31 12:57:54;;;;;;;0.82;0.50;;;19.60;99.90;;;;;;4762381;30;20504;-96
2023/07/31 13:00:23;;;;;;;0.90;0.32;;;19.70;99.90;;;;;;4757008;29;20055;-94
2023/07/31 13:02:58;;;;;;;1.40;0.57;;;19.40;99.90;;;;;;4757813;30;20657;-96
2023/07/31 13:05:24;;;;;;;1.10;0.50;;;19.50;99.90;;;;;;4758929;30;20044;-96
2023/07/31 13:07:50;;;;;;;1.40;0.50;;;19.40;99.90;;;;;;4755137;30;20069;-95
2023/07/31 13:10:16;;;;;;;1.00;0.70;;;19.60;99.90;;;;;;4764775;29;20079;-96
2023/07/31 13:12:44;;;;;;;1.80;0.68;;;19.50;99.90;;;;;;4758460;30;20075;-95
2023/07/31 13:15:10;;;;;;;1.50;0.68;;;19.40;99.90;;;;;;4757220;30;20039;-95
2023/07/31 13:17:36;;;;;;;1.63;0.70;;;19.40;99.90;;;;;;4757192;30;20086;-96
2023/07/31 13:20:08;;;;;;;2.58;0.95;;;19.30;99.90;;;;;;4756446;30;20051;-96
2023/07/31 13:22:34;;;;;;;3.17;0.70;;;19.60;99.90;;;;;;4741322;30;20079;-96
2023/07/31 13:25:00;;;;;;;1.48;0.70;;;19.50;99.90;;;;;;4756210;30;20071;-96
2023/07/31 13:27:29;;;;;;;3.13;0.80;;;19.30;99.90;;;;;;4744643;29;20116;-96
2023/07/31 13:30:01;;;;;;;1.45;0.60;;;19.30;99.90;;;;;;4769413;29;20051;-96
2023/07/31 13:32:29;;;;;;;2.33;0.60;;;19.30;99.90;;;;;;4754328;30;20440;-96
2023/07/31 13:35:00;;;;;;;1.83;1.00;;;19.50;99.90;;;;;;4726609;30;20488;-96
2023/07/31 13:37:29;;;;;;;2.53;1.02;;;19.50;99.90;;;;;;4744550;30;20043;-96
2023/07/31 13:40:00;;;;;;;3.30;0.90;;;19.30;99.90;;;;;;4766375;30;20047;-96
2023/07/31 13:42:32;;;;;;;2.20;1.17;;;19.40;99.90;;;;;;4742567;30;21032;-96
2023/07/31 13:48:31;;;;;;;4.00;1.00;;;19.50;99.90;;;;;;4689696;30;20136;-96
2023/07/31 13:58:54;;;;;;;5.85;1.23;;;19.50;99.90;;;;;;4732229;29;20119;-96
2023/07/31 14:02:37;;;;;;;6.18;1.17;;;19.70;99.90;;;;;;4730648;30;20181;-96
2023/07/31 14:05:55;;;;;;;2.85;1.00;;;19.80;99.90;;;;;;4664278;30;20061;-96
2023/07/31 14:09:42;;;;;;;4.68;1.50;;;19.90;99.90;;;;;;4710867;30;20148;-96
2023/07/31 14:15:53;;;;;;;3.15;1.10;;;20.70;99.90;;;;;;4713756;30;20502;-96
2023/07/31 14:22:09;;;;;;;3.75;1.25;;;19.70;99.90;;;;;;4699768;30;20631;-96
2023/07/31 14:24:35;;;;;;;3.40;1.27;;;20.10;99.90;;;;;;4672590;30;20048;-95
2023/07/31 14:27:02;;;;;;;3.17;1.30;;;20.00;99.90;;;;;;4686847;30;20148;-95
2023/07/31 14:29:31;;;;;;;2.28;1.48;;;19.90;99.90;;;;;;4685119;30;20487;-96
2023/07/31 14:32:25;;;;;;;3.28;1.40;;;19.90;99.90;;;;;;4692082;30;20597;-96
2023/07/31 14:34:56;;;;;;;3.33;1.23;;;19.70;99.90;;;;;;4703885;30;20063;-96
2023/07/31 14:37:27;;;;;;;3.97;1.38;;;19.60;99.90;;;;;;4718179;30;20140;-96
2023/07/31 14:40:16;;;;;;;3.50;1.30;;;19.60;99.90;;;;;;4714986;30;20488;-96
2023/07/31 14:42:42;;;;;;;2.88;1.40;;;19.50;99.90;;;;;;4746968;29;20066;-96
2023/07/31 14:45:09;;;;;;;3.08;1.48;;;19.60;99.90;;;;;;4760658;30;20047;-96
2023/07/31 14:47:38;;;;;;;4.57;1.40;;;19.70;99.90;;;;;;4748372;29;20051;-96
2023/07/31 14:50:07;;;;;;;6.85;1.42;;;19.80;99.90;;;;;;4761526;30;20062;-96
2023/07/31 14:52:38;;;;;;;4.82;1.60;;;20.00;99.90;;;;;;4754760;29;20058;-96
2023/07/31 14:55:14;;;;;;;2.85;1.50;;;19.80;99.90;;;;;;4789587;29;20051;-96
2023/07/31 14:57:42;;;;;;;4.07;1.75;;;19.90;99.90;;;;;;4763011;29;20054;-96
2023/07/31 15:00:10;;;;;;;5.20;1.85;;;19.90;99.90;;;;;;4780439;29;20200;-96
2023/07/31 15:02:48;;;;;;;4.80;1.60;;;19.70;99.90;;;;;;4763174;30;20508;-96
2023/07/31 15:05:24;;;;;;;4.45;1.67;;;19.80;99.90;;;;;;4947924;24;20034;31
2023/07/31 15:15:19;;;;;;;5.70;2.00;;;19.60;99.90;;;;;;4965524;24;20047;-96
2023/07/31 15:17:48;;;;;;;3.40;1.83;;;19.60;99.90;;;;;;4769459;29;20043;-96
2023/07/31 15:20:52;;;;;;;4.60;1.95;;;19.50;99.90;;;;;;4784554;30;20055;-96
2023/07/31 16:19:13;;;;;;;4.68;1.58;;;19.10;99.90;;;;;;622954;24;20331;-95
2023/07/31 16:21:39;;;;;;;4.78;1.70;;;19.10;99.90;;;;;;4750831;30;20056;-96
2023/07/31 16:24:13;;;;;;;4.55;1.65;;;19.00;99.90;;;;;;4730880;30;20386;-96
2023/07/31 16:27:23;;;;;;;6.07;1.13;;;19.00;99.90;;;;;;4737957;30;20044;-96
2023/07/31 16:30:17;;;;;;;5.05;1.48;;;19.30;99.90;;;;;;4748965;30;20028;-96
2023/07/31 16:33:22;;;;;;;4.18;1.40;;;19.00;99.90;;;;;;4766584;30;20059;-96
2023/07/31 16:36:00;;;;;;;3.97;1.48;;;19.20;99.90;;;;;;4735986;30;20048;-96
2023/07/31 16:38:37;;;;;;;3.60;1.43;;;19.10;99.90;;;;;;4742993;30;20135;-96
2023/07/31 16:41:18;;;;;;;2.58;1.10;;;19.10;99.90;;;;;;4718203;30;20096;-96
2023/07/31 16:44:27;;;;;;;4.25;1.10;;;19.00;99.90;;;;;;4748268;30;20053;-96
2023/07/31 16:47:12;;;;;;;2.92;1.23;;;18.90;99.90;;;;;;5016303;24;20043;-96
2023/07/31 16:49:56;;;;;;;4.07;1.42;;;19.00;99.90;;;;;;4829845;24;20050;-96
2023/07/31 16:52:28;;;;;;;4.97;1.17;;;19.00;99.90;;;;;;4784132;29;20039;-96
2023/07/31 16:54:57;;;;;;;4.07;1.40;;;19.00;99.90;;;;;;4759409;29;20070;-96
2023/07/31 16:57:36;;;;;;;2.97;1.20;;;19.20;99.90;;;;;;4781419;29;20053;-96
2023/07/31 17:00:21;;;;;;;;;;;;;;;;;;;;;
2023/07/31 17:02:50;;;;;;;3.67;1.30;;;19.20;99.90;;;;;;4772448;29;20051;-96
2023/07/31 17:05:18;;;;;;;2.83;1.17;;;19.00;99.90;;;;;;4763618;29;20054;-96
2023/07/31 17:07:47;;;;;;;4.72;1.30;;;18.80;99.90;;;;;;4761589;29;20083;-96
2023/07/31 17:10:13;;;;;;;3.03;1.42;;;18.90;99.90;;;;;;4781927;29;20046;-96
2023/07/31 17:12:47;;;;;;;4.88;1.15;;;19.00;99.90;;;;;;4775777;29;20039;-96
2023/07/31 17:15:16;;;;;;;2.63;1.30;;;19.00;99.90;;;;;;4775804;30;20075;-96
2023/07/31 17:17:54;;;;;;;2.92;1.27;;;19.20;99.90;;;;;;4777953;29;20051;-96
2023/07/31 17:20:19;;;;;;;3.53;1.27;;;18.90;99.90;;;;;;4753322;30;20047;-96
2023/07/31 17:22:50;;;;;;;3.15;1.10;;;19.00;99.90;;;;;;4774293;29;20042;-96
2023/07/31 17:25:32;;;;;;;3.67;1.35;;;18.70;99.90;;;;;;4776872;29;20623;-96
2023/07/31 17:27:58;;;;;;;1.95;1.13;;;18.80;99.90;;;;;;4760755;29;20046;-96
2023/07/31 17:30:24;;;;;;;2.88;1.30;;;18.70;99.90;;;;;;4768446;29;20090;-96
2023/07/31 17:32:56;;;;;;;3.55;1.33;;;18.70;99.90;;;;;;4775297;29;20043;-96
2023/07/31 17:35:22;;;;;;;3.08;1.35;;;18.80;99.90;;;;;;4774797;29;20107;-96
2023/07/31 17:37:48;;;;;;;4.13;1.45;;;18.90;99.90;;;;;;4775744;29;20510;-96
2023/07/31 17:40:14;;;;;;;2.85;1.52;;;18.70;99.90;;;;;;4776588;29;20047;-96
2023/07/31 17:42:40;;;;;;;3.97;1.25;;;18.80;99.90;;;;;;4759604;29;20054;-96
2023/07/31 17:45:06;;;;;;;2.83;1.40;;;18.40;99.90;;;;;;4775871;29;20046;-96
2023/07/31 17:47:32;;;;;;;2.90;1.27;;;18.60;99.90;;;;;;4773859;29;20055;-96
2023/07/31 17:49:58;;;;;;;2.30;1.38;;;18.60;99.90;;;;;;4752798;29;20138;-96
2023/07/31 17:52:24;;;;;;;3.75;1.27;;;18.60;99.90;;;;;;4760902;29;20099;-96
2023/07/31 17:54:53;;;;;;;2.80;1.30;;;18.70;99.90;;;;;;4767214;30;20045;-96
2023/07/31 17:57:20;;;;;;;2.92;1.27;;;18.70;99.90;;;;;;4760265;29;20830;-96
2023/07/31 17:59:47;;;;;;;1.70;1.10;;;18.50;99.90;;;;;;4776672;29;20620;-96
2023/07/31 18:02:12;;;;;;;3.08;1.20;;;18.70;99.90;;;;;;4775450;29;20513;-96
2023/07/31 18:04:38;;;;;;;2.45;1.35;;;18.40;99.90;;;;;;4776009;29;20305;-96
2023/07/31 18:07:04;;;;;;;3.17;1.50;;;18.50;99.90;;;;;;4760048;29;20047;-96
2023/07/31 18:09:36;;;;;;;2.72;1.30;;;18.50;99.90;;;;;;4742846;30;20170;-96
2023/07/31 18:12:01;;;;;;;2.92;1.27;;;18.50;99.90;;;;;;4743868;30;20047;-96
2023/07/31 18:14:28;;;;;;;4.82;2.00;;;18.50;99.90;;;;;;4744048;29;20046;-96
2023/07/31 18:16:54;;;;;;;3.83;1.25;;;18.60;99.90;;;;;;4773453;29;20054;-96
2023/07/31 18:19:22;;;;;;;3.33;1.50;;;18.40;99.90;;;;;;4769696;29;20043;-96
2023/07/31 18:21:51;;;;;;;3.15;1.20;;;18.40;99.90;;;;;;4760371;29;20525;-96
2023/07/31 18:24:16;;;;;;;3.25;1.20;;;18.50;99.90;;;;;;4774646;29;20042;-96
2023/07/31 18:26:42;;;;;;;3.45;1.50;;;18.50;99.90;;;;;;4767696;30;20051;-96
2023/07/31 18:29:11;;;;;;;2.92;1.40;;;18.60;99.90;;;;;;4755252;29;20043;-96
2023/07/31 18:31:37;;;;;;;3.58;1.33;;;18.40;99.90;;;;;;4775079;29;20059;-96
2023/07/31 18:34:05;;;;;;;4.05;1.55;;;18.40;99.90;;;;;;4767561;29;20190;-96
2023/07/31 18:36:33;;;;;;;2.17;1.42;;;18.50;99.90;;;;;;4756491;30;20083;-96
2023/07/31 18:39:01;;;;;;;6.45;1.63;;;18.60;99.90;;;;;;4771504;29;20609;-96
2023/07/31 18:41:40;;;;;;;5.95;1.50;;;18.40;99.90;;;;;;4775498;29;20055;-96
2023/07/31 18:44:22;;;;;;;3.75;1.20;;;18.60;99.90;;;;;;4772659;29;20043;-96
2023/07/31 18:46:53;;;;;;;2.42;1.17;;;18.40;99.90;;;;;;4782515;29;20043;-96
2023/07/31 18:49:28;;;;;;;6.28;1.58;;;18.60;99.90;;;;;;4762631;29;20063;-96
2023/07/31 18:51:54;;;;;;;3.00;1.30;;;18.50;99.90;;;;;;4773471;30;20111;-96
2023/07/31 18:54:23;;;;;;;5.10;1.80;;;18.50;99.90;;;;;;4758022;30;20051;-96
2023/07/31 18:56:52;;;;;;;2.90;1.70;;;18.30;99.90;;;;;;4774371;30;20047;-96
2023/07/31 18:59:18;;;;;;;3.30;1.70;;;18.20;99.90;;;;;;4765351;30;20377;-96
2023/07/31 19:01:46;;;;;;;3.85;1.15;;;18.30;99.90;;;;;;4761967;30;20100;-96
2023/07/31 19:04:24;;;;;;;3.13;1.70;;;18.40;99.90;;;;;;4781882;30;20059;-96
2023/07/31 19:06:50;;;;;;;3.33;1.50;;;17.90;99.90;;;;;;4769176;30;20051;-96
2023/07/31 19:09:28;;;;;;;3.00;1.73;;;18.10;99.90;;;;;;4762268;30;20039;-96
2023/07/31 19:11:54;;;;;;;2.30;1.30;;;18.20;99.90;;;;;;4777044;30;20043;-96
2023/07/31 19:14:19;;;;;;;4.05;1.50;;;18.40;99.90;;;;;;4777905;30;20103;-96
2023/07/31 19:16:45;;;;;;;3.63;1.50;;;18.20;99.90;;;;;;4765943;30;20572;-96
2023/07/31 19:19:13;;;;;;;3.35;1.45;;;18.30;99.90;;;;;;4777245;30;20066;-96
2023/07/31 19:21:45;;;;;;;4.18;1.35;;;18.30;99.90;;;;;;4774762;30;20116;-96
2023/07/31 19:24:11;;;;;;;4.22;1.58;;;18.30;99.90;;;;;;4771982;30;20078;-96
2023/07/31 19:26:43;;;;;;;3.60;1.42;;;18.10;99.90;;;;;;4769486;30;20043;-96
2023/07/31 19:29:15;;;;;;;2.30;1.40;;;18.00;99.90;;;;;;4784923;30;20089;-96
2023/07/31 19:31:46;;;;;;;3.33;1.70;;;18.00;99.90;;;;;;4765831;30;20048;-96
2023/07/31 19:34:15;;;;;;;3.13;1.60;;;18.00;99.90;;;;;;4770992;30;20476;-96
2023/07/31 19:36:42;;;;;;;4.55;1.67;;;18.00;99.90;;;;;;4767101;30;20043;-96
2023/07/31 19:39:10;;;;;;;2.95;1.40;;;18.20;99.90;;;;;;4780795;30;20054;-96
2023/07/31 19:41:38;;;;;;;4.00;1.63;;;18.00;99.90;;;;;;4767321;30;20066;-96
2023/07/31 19:44:04;;;;;;;3.42;1.40;;;17.90;99.90;;;;;;4777328;30;20039;-96
2023/07/31 19:46:30;;;;;;;5.35;1.70;;;18.10;99.90;;;;;;4776765;30;20054;-96
2023/07/31 19:48:58;;;;;;;4.05;1.65;;;17.90;99.90;;;;;;4776788;30;20051;-95
2023/07/31 19:51:29;;;;;;;4.22;1.42;;;18.10;99.90;;;;;;4759737;30;20064;-96
2023/07/31 19:58:49;;;;;;;;;;;;;;;;;;;;;
2023/07/31 20:01:43;;;;;;;4.35;1.90;;;18.10;99.90;;;;;;4775215;30;20134;-96
2023/07/31 20:04:40;;;;;;;6.20;2.00;;;17.90;99.90;;;;;;4772172;30;20047;-95
2023/07/31 20:07:21;;;;;;;2.78;1.52;;;18.10;99.90;;;;;;4771949;30;20052;-94
2023/07/31 20:09:58;;;;;;;4.50;1.83;;;17.80;99.90;;;;;;4764965;30;20059;-93
2023/07/31 20:12:28;;;;;;;4.32;1.75;;;18.00;99.90;;;;;;4770484;30;20093;-93
2023/07/31 20:14:54;;;;;;;5.13;1.95;;;18.10;99.90;;;;;;4777897;30;20048;-94
2023/07/31 20:17:21;;;;;;;4.90;1.88;;;18.00;99.90;;;;;;4772024;30;20090;-94
2023/07/31 20:19:47;;;;;;;;;;;18.00;99.90;;;;;;4753024;30;20126;-94
2023/07/31 20:22:13;;;;;;;4.47;1.55;;;18.10;99.90;;;;;;4770947;30;20443;-94
2023/07/31 20:24:39;;;;;;;6.32;1.88;;;18.00;99.90;;;;;;4733509;30;20125;-93
2023/07/31 20:27:05;;;;;;;3.05;1.30;;;17.80;99.90;;;;;;4755714;30;20040;-93
2023/07/31 20:29:31;;;;;;;3.83;1.08;;;17.90;99.90;;;;;;4756356;30;20460;-92
2023/07/31 20:31:57;;;;;;;2.10;1.05;;;17.70;99.90;;;;;;4773432;30;20047;-92
2023/07/31 20:34:23;;;;;;;2.38;1.33;;;17.60;99.90;;;;;;4772511;30;20043;-93
2023/07/31 20:36:49;;;;;;;4.55;1.20;;;17.70;99.90;;;;;;4771096;30;20111;-93
2023/07/31 20:39:15;;;;;;;2.55;1.20;;;17.50;99.90;;;;;;4773280;30;20043;-94
2023/07/31 20:41:42;;;;;;;5.63;1.95;;;17.60;99.90;;;;;;4758713;30;20057;-93
2023/07/31 20:44:08;;;;;;;2.90;1.80;;;17.70;99.90;;;;;;4756870;30;20476;-94
2023/07/31 20:46:33;;;;;;;4.57;1.85;;;17.40;99.90;;;;;;4773788;30;20058;-93
2023/07/31 20:49:09;;;;;;;5.72;2.05;;;17.50;99.90;;;;;;4785280;30;20823;-94
2023/07/31 20:52:25;;;;;;;3.90;1.92;;;17.40;99.90;;;;;;4755679;30;20771;-96
2023/07/31 20:55:18;;;;;;;6.32;2.33;;;17.40;99.90;;;;;;4772830;30;20051;-96
2023/07/31 20:57:49;;;;;;;5.47;1.73;;;17.70;99.90;;;;;;4772645;30;20047;-95
2023/07/31 21:00:26;;;;;;;6.43;2.00;;;17.00;99.90;;;;;;4758567;30;20051;-96
2023/07/31 21:02:58;;;;;;;5.32;1.73;;;17.50;99.90;;;;;;4757291;30;20043;-94
2023/07/31 21:05:31;;;;;;;6.45;2.53;;;17.30;99.90;;;;;;4760665;30;20051;-96
2023/07/31 21:07:59;;;;;;;6.15;1.98;;;17.50;99.90;;;;;;4769655;30;20054;-95
2023/07/31 21:10:32;;;;;;;3.40;1.85;;;17.50;99.90;;;;;;4768545;30;20044;-95
2023/07/31 21:13:04;;;;;;;5.28;1.88;;;17.40;99.90;;;;;;4770698;30;20051;-95
2023/07/31 21:15:40;;;;;;;8.18;2.50;;;17.20;99.90;;;;;;4770289;30;20035;-95
2023/07/31 21:18:19;;;;;;;4.57;1.60;;;17.30;99.90;;;;;;4753624;30;20122;-96
2023/07/31 21:21:00;;;;;;;6.78;1.83;;;17.50;99.90;;;;;;4770939;30;20109;-96
2023/07/31 21:24:05;;;;;;;8.23;2.10;;;17.50;99.90;;;;;;4755048;30;20203;-96
2023/07/31 21:30:33;;;;;;;6.55;2.20;;;17.20;99.90;;;;;;4744345;29;20055;-93
2023/07/31 21:33:17;;;;;;;6.25;2.53;;;17.20;99.90;;;;;;4757406;30;20087;-96
2023/07/31 21:35:43;;;;;;;3.58;1.80;;;17.50;99.90;;;;;;4770045;30;21553;-94
2023/07/31 21:38:10;;;;;;;4.53;1.83;;;17.40;99.90;;;;;;4772319;30;20054;-96
2023/07/31 21:40:36;;;;;;;6.18;2.10;;;17.50;99.90;;;;;;4772130;30;20120;-95
2023/07/31 21:43:05;;;;;;;3.38;1.55;;;17.40;99.90;;;;;;4772390;30;20054;-94
2023/07/31 21:45:31;;;;;;;4.70;2.10;;;17.30;99.90;;;;;;4756762;30;20135;-96
2023/07/31 21:47:56;;;;;;;4.85;1.35;;;17.20;99.90;;;;;;4769559;30;20043;-96
2023/07/31 21:50:22;;;;;;;4.55;1.83;;;17.10;99.90;;;;;;4769002;30;20107;-93
2023/07/31 21:52:48;;;;;;;3.97;1.50;;;17.40;99.90;;;;;;4759120;29;20427;-93
2023/07/31 21:55:14;;;;;;;4.57;1.60;;;17.20;99.90;;;;;;4758844;29;20126;-94
2023/07/31 21:57:40;;;;;;;3.95;1.70;;;17.40;99.90;;;;;;4774835;29;20050;-92
2023/07/31 22:00:06;;;;;;;6.78;1.60;;;17.10;99.90;;;;;;4744966;29;20716;-94
2023/07/31 22:02:32;;;;;;;2.53;1.08;;;17.30;99.90;;;;;;4746211;29;20046;-92
2023/07/31 22:04:58;;;;;;;5.20;1.38;;;17.10;99.90;;;;;;4744879;29;20042;-93
2023/07/31 22:07:23;;;;;;;4.28;1.52;;;17.30;99.90;;;;;;4753859;30;20431;-93
2023/07/31 22:09:49;;;;;;;4.60;1.40;;;17.30;99.90;;;;;;4753875;29;20522;-92
2023/07/31 22:12:18;;;;;;;5.55;1.70;;;17.00;99.90;;;;;;4760834;29;20512;-93
2023/07/31 22:14:44;;;;;;;5.13;1.77;;;17.00;99.90;;;;;;4755239;29;20142;-92
2023/07/31 22:17:09;;;;;;;4.00;1.42;;;17.20;99.90;;;;;;4744770;29;20137;-93
2023/07/31 22:19:35;;;;;;;5.07;1.60;;;16.90;99.90;;;;;;4745513;29;20135;-92
2023/07/31 22:22:03;;;;;;;6.57;1.67;;;16.90;99.90;;;;;;4760575;29;20718;-92
2023/07/31 22:24:29;;;;;;;5.50;1.70;;;16.90;99.90;;;;;;4771598;29;20109;-94
2023/07/31 22:26:56;;;;;;;9.18;1.65;;;17.10;99.90;;;;;;4747287;30;20673;-93
2023/07/31 22:29:21;;;;;;;8.37;1.50;;;17.00;99.90;;;;;;4754715;29;20109;-94
2023/07/31 22:31:47;;;;;;;5.45;1.75;;;16.80;99.90;;;;;;4758545;29;20082;-92
2023/07/31 22:34:13;;;;;;;8.20;2.15;;;16.70;99.90;;;;;;4745347;29;20671;-93
2023/07/31 22:36:39;;;;;;;5.63;1.60;;;17.00;99.90;;;;;;4759862;29;20043;-94
2023/07/31 22:39:04;;;;;;;6.00;1.98;;;16.70;99.90;;;;;;4774396;29;20053;-93
2023/07/31 22:41:30;;;;;;;6.07;2.20;;;16.70;99.90;;;;;;4742914;29;20078;-92
2023/07/31 22:43:57;;;;;;;4.90;1.70;;;16.90;99.90;;;;;;4758014;29;20051;-93
2023/07/31 22:46:22;;;;;;;6.57;1.88;;;16.70;99.90;;;;;;4741294;30;20340;-92
2023/07/31 22:48:49;;;;;;;7.10;2.03;;;17.00;99.90;;;;;;4738964;29;20099;-93
2023/07/31 22:51:15;;;;;;;3.22;1.67;;;16.60;99.90;;;;;;4772239;30;20095;-93
2023/07/31 22:53:41;;;;;;;7.70;1.88;;;16.90;99.90;;;;;;4755299;30;20091;-92
2023/07/31 22:56:06;;;;;;;5.30;1.88;;;17.00;99.90;;;;;;4754047;30;20094;-94
2023/07/31 22:58:35;;;;;;;6.35;2.40;;;16.60;99.90;;;;;;4749643;30;20771;-92
2023/07/31 23:01:02;;;;;;;9.63;2.10;;;16.80;99.90;;;;;;4751789;30;20138;-93
2023/07/31 23:03:28;;;;;;;5.95;1.80;;;16.70;99.90;;;;;;4756487;30;20071;-92
2023/07/31 23:05:54;;;;;;;6.68;1.75;;;16.90;99.90;;;;;;4751480;30;20106;-92
2023/07/31 23:08:19;;;;;;;4.78;1.88;;;16.60;99.90;;;;;;4756813;30;20043;-92
2023/07/31 23:10:49;;;;;;;6.25;2.30;;;16.80;99.90;;;;;;4756534;30;20043;-92
2023/07/31 23:13:15;;;;;;;7.05;2.00;;;16.90;99.90;;;;;;4771964;30;20052;-93
2023/07/31 23:15:42;;;;;;;6.18;2.92;;;16.70;99.90;;;;;;4756988;30;20521;-91
2023/07/31 23:18:07;;;;;;;5.50;1.92;;;16.90;99.90;;;;;;4755478;30;20040;-92
2023/07/31 23:20:34;;;;;;;7.63;2.20;;;16.80;99.90;;;;;;4765822;30;20051;-92
2023/07/31 23:22:59;;;;;;;6.57;1.80;;;16.80;99.90;;;;;;4770357;30;20062;-92
2023/07/31 23:25:25;;;;;;;6.82;2.35;;;16.90;99.90;;;;;;4742175;30;20047;-92
2023/07/31 23:27:51;;;;;;;6.18;2.33;;;16.50;99.90;;;;;;4757055;30;20047;-93
2023/07/31 23:30:16;;;;;;;6.13;2.28;;;16.60;99.90;;;;;;4741420;30;20039;-92
2023/07/31 23:32:42;;;;;;;7.05;2.25;;;16.80;99.90;;;;;;4742601;30;21139;-92
2023/07/31 23:35:08;;;;;;;6.30;2.47;;;16.70;99.90;;;;;;4756316;30;20077;-92
2023/07/31 23:37:34;;;;;;;5.57;2.13;;;16.70;99.90;;;;;;4771619;30;20043;-92
2023/07/31 23:40:00;;;;;;;5.88;2.40;;;16.60;99.90;;;;;;4756385;30;20565;-93
2023/07/31 23:42:25;;;;;;;7.05;2.30;;;16.50;99.90;;;;;;4756689;30;20043;-93
2023/07/31 23:44:51;;;;;;;8.43;2.50;;;16.50;99.90;;;;;;4750559;30;20047;-92
2023/07/31 23:47:17;;;;;;;11.00;2.60;;;16.50;99.90;;;;;;4771069;30;20134;-92
2023/07/31 23:49:42;;;;;;;6.07;2.20;;;16.60;99.90;;;;;;4759526;30;20053;-92
2023/07/31 23:52:09;;;;;;;12.38;2.78;;;16.60;99.90;;;;;;4759292;30;20063;-92
2023/07/31 23:54:34;;;;;;;8.70;3.03;;;16.70;99.90;;;;;;4757385;30;20043;-92
2023/07/31 23:57:00;;;;;;;7.95;2.35;;;16.70;99.90;;;;;;4744237;30;20146;-92